sensor_id;sensor_type;location;lat;lon;timestamp;pressure;altitude;pressure_sealevel;temperature;humidity
50444;BME280;36370;52.216;21.142;2022-08-21T00:02:17;100213.44;;;20.82;100.00
50444;BME280;36370;52.216;21.142;2022-08-21T00:06:19;100205.06;;;20.69;100.00
50444;BME280;36370;52.216;21.142;2022-08-21T00:10:22;100203.75;;;20.73;100.00
50444;BME280;36370;52.216;21.142;2022-08-21T00:14:24;100181.66;;;20.62;100.00
50444;BME280;36370;52.216;21.142;2022-08-21T00:18:33;100169.28;;;20.53;100.00
50444;BME280;36370;52.216;21.142;2022-08-21T00:22:36;100169.47;;;20.43;100.00
50444;BME280;36370;52.216;21.142;2022-08-21T00:26:39;100155.59;;;20.40;100.00
50444;BME280;36370;52.216;21.142;2022-08-21T00:30:41;100156.59;;;20.31;100.00
50444;BME280;36370;52.216;21.142;2022-08-21T00:34:44;100150.72;;;20.27;100.00
50444;BME280;36370;52.216;21.142;2022-08-21T00:38:46;100145.72;;;20.24;100.00
50444;BME280;36370;52.216;21.142;2022-08-21T00:42:49;100140.53;;;20.14;100.00
50444;BME280;36370;52.216;21.142;2022-08-21T00:46:54;100129.00;;;20.05;100.00
50444;BME280;36370;52.216;21.142;2022-08-21T00:51:07;100124.16;;;20.01;100.00
50444;BME280;36370;52.216;21.142;2022-08-21T00:55:11;100113.44;;;19.84;100.00
50444;BME280;36370;52.216;21.142;2022-08-21T00:59:16;100121.78;;;19.81;100.00
50444;BME280;36370;52.216;21.142;2022-08-21T01:03:22;100122.81;;;19.62;100.00
50444;BME280;36370;52.216;21.142;2022-08-21T01:07:25;100115.94;;;19.51;100.00
50444;BME280;36370;52.216;21.142;2022-08-21T01:11:28;100121.06;;;19.45;100.00
50444;BME280;36370;52.216;21.142;2022-08-21T01:15:34;100120.66;;;19.31;100.00
50444;BME280;36370;52.216;21.142;2022-08-21T01:19:38;100124.59;;;19.19;100.00
50444;BME280;36370;52.216;21.142;2022-08-21T01:23:43;100122.59;;;19.21;100.00
50444;BME280;36370;52.216;21.142;2022-08-21T01:27:46;100114.31;;;19.06;100.00
50444;BME280;36370;52.216;21.142;2022-08-21T01:31:49;100118.66;;;19.07;100.00
50444;BME280;36370;52.216;21.142;2022-08-21T01:35:52;100114.63;;;19.03;100.00
50444;BME280;36370;52.216;21.142;2022-08-21T01:39:54;100111.41;;;18.91;100.00
50444;BME280;36370;52.216;21.142;2022-08-21T01:43:56;100104.41;;;18.90;100.00
50444;BME280;36370;52.216;21.142;2022-08-21T01:47:59;100103.03;;;18.86;100.00
50444;BME280;36370;52.216;21.142;2022-08-21T01:52:03;100104.25;;;18.74;100.00
50444;BME280;36370;52.216;21.142;2022-08-21T01:56:14;100106.38;;;18.70;100.00
50444;BME280;36370;52.216;21.142;2022-08-21T02:00:18;100121.44;;;18.61;100.00
50444;BME280;36370;52.216;21.142;2022-08-21T02:04:22;100119.72;;;18.52;100.00
50444;BME280;36370;52.216;21.142;2022-08-21T02:08:24;100106.94;;;18.56;100.00
50444;BME280;36370;52.216;21.142;2022-08-21T02:12:26;100112.19;;;18.47;100.00
50444;BME280;36370;52.216;21.142;2022-08-21T02:16:28;100109.53;;;18.47;100.00
50444;BME280;36370;52.216;21.142;2022-08-21T02:20:39;100112.56;;;18.53;100.00
50444;BME280;36370;52.216;21.142;2022-08-21T02:24:42;100109.06;;;18.52;100.00
50444;BME280;36370;52.216;21.142;2022-08-21T02:28:56;100103.19;;;18.48;100.00
50444;BME280;36370;52.216;21.142;2022-08-21T02:32:58;100102.00;;;18.43;100.00
50444;BME280;36370;52.216;21.142;2022-08-21T02:37:01;100104.09;;;18.39;100.00
50444;BME280;36370;52.216;21.142;2022-08-21T02:41:06;100107.06;;;18.36;100.00
50444;BME280;36370;52.216;21.142;2022-08-21T02:45:10;100099.94;;;18.37;100.00
50444;BME280;36370;52.216;21.142;2022-08-21T02:49:12;100095.75;;;18.34;100.00
50444;BME280;36370;52.216;21.142;2022-08-21T02:53:16;100101.91;;;18.35;100.00
50444;BME280;36370;52.216;21.142;2022-08-21T02:57:19;100108.13;;;18.25;100.00
50444;BME280;36370;52.216;21.142;2022-08-21T03:01:21;100095.28;;;18.21;100.00
50444;BME280;36370;52.216;21.142;2022-08-21T03:05:25;100098.53;;;18.15;100.00
50444;BME280;36370;52.216;21.142;2022-08-21T03:09:28;100083.97;;;18.19;100.00
50444;BME280;36370;52.216;21.142;2022-08-21T03:13:30;100088.34;;;18.10;100.00
50444;BME280;36370;52.216;21.142;2022-08-21T03:17:34;100095.94;;;18.05;100.00
50444;BME280;36370;52.216;21.142;2022-08-21T03:21:36;100102.72;;;17.99;100.00
50444;BME280;36370;52.216;21.142;2022-08-21T03:25:39;100113.81;;;17.94;100.00
50444;BME280;36370;52.216;21.142;2022-08-21T03:29:41;100095.72;;;17.98;100.00
50444;BME280;36370;52.216;21.142;2022-08-21T03:33:44;100096.31;;;17.92;100.00
50444;BME280;36370;52.216;21.142;2022-08-21T03:37:47;100097.00;;;17.94;100.00
50444;BME280;36370;52.216;21.142;2022-08-21T03:41:49;100101.66;;;17.82;100.00
50444;BME280;36370;52.216;21.142;2022-08-21T03:45:51;100102.34;;;17.84;100.00
50444;BME280;36370;52.216;21.142;2022-08-21T03:49:54;100104.19;;;17.84;100.00
50444;BME280;36370;52.216;21.142;2022-08-21T03:53:56;100121.78;;;17.85;100.00
50444;BME280;36370;52.216;21.142;2022-08-21T03:57:58;100108.06;;;17.89;100.00
50444;BME280;36370;52.216;21.142;2022-08-21T04:02:20;100104.22;;;18.02;100.00
50444;BME280;36370;52.216;21.142;2022-08-21T04:06:23;100099.84;;;18.10;100.00
50444;BME280;36370;52.216;21.142;2022-08-21T04:10:28;100095.44;;;18.19;100.00
50444;BME280;36370;52.216;21.142;2022-08-21T04:14:31;100087.41;;;18.29;100.00
50444;BME280;36370;52.216;21.142;2022-08-21T04:18:33;100088.69;;;18.43;100.00
50444;BME280;36370;52.216;21.142;2022-08-21T04:22:35;100097.03;;;18.48;100.00
50444;BME280;36370;52.216;21.142;2022-08-21T04:26:38;100083.34;;;18.61;100.00
50444;BME280;36370;52.216;21.142;2022-08-21T04:30:42;100074.59;;;18.69;100.00
50444;BME280;36370;52.216;21.142;2022-08-21T04:34:45;100086.16;;;18.77;100.00
50444;BME280;36370;52.216;21.142;2022-08-21T04:38:48;100076.84;;;18.81;100.00
50444;BME280;36370;52.216;21.142;2022-08-21T04:42:56;100075.47;;;18.95;100.00
50444;BME280;36370;52.216;21.142;2022-08-21T04:47:00;100072.03;;;19.03;100.00
50444;BME280;36370;52.216;21.142;2022-08-21T04:55:11;100060.81;;;19.17;100.00
50444;BME280;36370;52.216;21.142;2022-08-21T04:59:19;100049.25;;;19.35;100.00
50444;BME280;36370;52.216;21.142;2022-08-21T05:03:23;100050.97;;;19.44;100.00
50444;BME280;36370;52.216;21.142;2022-08-21T05:07:29;100052.03;;;19.60;100.00
50444;BME280;36370;52.216;21.142;2022-08-21T05:11:44;100041.06;;;19.71;100.00
50444;BME280;36370;52.216;21.142;2022-08-21T05:15:46;100048.78;;;19.82;100.00
50444;BME280;36370;52.216;21.142;2022-08-21T05:19:49;100039.47;;;19.78;100.00
50444;BME280;36370;52.216;21.142;2022-08-21T05:23:51;100044.16;;;19.93;100.00
50444;BME280;36370;52.216;21.142;2022-08-21T05:27:53;100040.22;;;20.21;100.00
50444;BME280;36370;52.216;21.142;2022-08-21T05:31:58;100041.19;;;20.29;100.00
50444;BME280;36370;52.216;21.142;2022-08-21T05:36:01;100044.72;;;20.37;100.00
50444;BME280;36370;52.216;21.142;2022-08-21T05:40:04;100053.72;;;20.69;100.00
50444;BME280;36370;52.216;21.142;2022-08-21T05:44:23;100055.03;;;20.98;100.00
50444;BME280;36370;52.216;21.142;2022-08-21T05:48:27;100053.34;;;21.13;100.00
50444;BME280;36370;52.216;21.142;2022-08-21T05:52:30;100060.63;;;21.28;100.00
50444;BME280;36370;52.216;21.142;2022-08-21T05:56:32;100064.59;;;21.40;100.00
50444;BME280;36370;52.216;21.142;2022-08-21T06:00:34;100058.72;;;21.53;100.00
50444;BME280;36370;52.216;21.142;2022-08-21T06:04:40;100085.91;;;21.65;100.00
50444;BME280;36370;52.216;21.142;2022-08-21T06:08:42;100092.78;;;21.67;100.00
50444;BME280;36370;52.216;21.142;2022-08-21T06:12:45;100077.69;;;21.75;100.00
50444;BME280;36370;52.216;21.142;2022-08-21T06:16:47;100088.53;;;21.81;100.00
50444;BME280;36370;52.216;21.142;2022-08-21T06:20:50;100094.34;;;21.85;100.00
50444;BME280;36370;52.216;21.142;2022-08-21T06:24:52;100087.94;;;21.94;100.00
50444;BME280;36370;52.216;21.142;2022-08-21T06:28:54;100112.59;;;22.13;100.00
50444;BME280;36370;52.216;21.142;2022-08-21T06:32:56;100108.25;;;22.12;100.00
50444;BME280;36370;52.216;21.142;2022-08-21T06:36:59;100116.38;;;22.18;100.00
50444;BME280;36370;52.216;21.142;2022-08-21T06:41:02;100110.25;;;22.41;100.00
50444;BME280;36370;52.216;21.142;2022-08-21T06:45:05;100148.94;;;22.62;100.00
50444;BME280;36370;52.216;21.142;2022-08-21T06:49:08;100144.81;;;22.74;100.00
50444;BME280;36370;52.216;21.142;2022-08-21T06:53:22;100138.97;;;22.93;100.00
50444;BME280;36370;52.216;21.142;2022-08-21T06:57:24;100138.84;;;23.10;100.00
50444;BME280;36370;52.216;21.142;2022-08-21T07:01:27;100133.78;;;23.15;100.00
50444;BME280;36370;52.216;21.142;2022-08-21T07:05:30;100143.59;;;23.23;100.00
50444;BME280;36370;52.216;21.142;2022-08-21T07:09:32;100141.63;;;23.32;100.00
50444;BME280;36370;52.216;21.142;2022-08-21T07:13:35;100154.78;;;23.26;100.00
50444;BME280;36370;52.216;21.142;2022-08-21T07:17:37;100166.34;;;23.42;100.00
50444;BME280;36370;52.216;21.142;2022-08-21T07:21:40;100163.41;;;23.66;100.00
50444;BME280;36370;52.216;21.142;2022-08-21T07:25:42;100169.31;;;23.62;100.00
50444;BME280;36370;52.216;21.142;2022-08-21T07:29:44;100168.50;;;23.91;100.00
50444;BME280;36370;52.216;21.142;2022-08-21T07:33:47;100181.72;;;23.93;100.00
50444;BME280;36370;52.216;21.142;2022-08-21T07:37:49;100161.75;;;24.32;100.00
50444;BME280;36370;52.216;21.142;2022-08-21T07:41:52;100187.25;;;24.58;100.00
50444;BME280;36370;52.216;21.142;2022-08-21T07:45:54;100179.63;;;24.10;100.00
50444;BME280;36370;52.216;21.142;2022-08-21T07:49:56;100170.47;;;24.55;100.00
50444;BME280;36370;52.216;21.142;2022-08-21T07:53:59;100170.34;;;24.64;100.00
50444;BME280;36370;52.216;21.142;2022-08-21T07:58:02;100161.13;;;24.95;100.00
50444;BME280;36370;52.216;21.142;2022-08-21T08:02:04;100168.81;;;24.98;100.00
50444;BME280;36370;52.216;21.142;2022-08-21T08:06:07;100169.31;;;25.08;100.00
50444;BME280;36370;52.216;21.142;2022-08-21T08:10:15;100171.81;;;25.09;100.00
50444;BME280;36370;52.216;21.142;2022-08-21T08:14:17;100157.09;;;25.05;100.00
50444;BME280;36370;52.216;21.142;2022-08-21T08:18:27;100154.63;;;25.11;100.00
50444;BME280;36370;52.216;21.142;2022-08-21T08:22:29;100157.31;;;25.11;100.00
50444;BME280;36370;52.216;21.142;2022-08-21T08:26:32;100164.84;;;25.43;100.00
50444;BME280;36370;52.216;21.142;2022-08-21T08:30:34;100156.09;;;25.35;100.00
50444;BME280;36370;52.216;21.142;2022-08-21T08:34:37;100154.63;;;25.67;100.00
50444;BME280;36370;52.216;21.142;2022-08-21T08:38:40;100162.72;;;25.74;100.00
50444;BME280;36370;52.216;21.142;2022-08-21T08:42:46;100157.25;;;25.95;100.00
50444;BME280;36370;52.216;21.142;2022-08-21T08:46:50;100170.56;;;26.04;100.00
50444;BME280;36370;52.216;21.142;2022-08-21T08:50:59;100160.84;;;26.03;100.00
50444;BME280;36370;52.216;21.142;2022-08-21T08:55:21;100161.72;;;26.23;100.00
50444;BME280;36370;52.216;21.142;2022-08-21T08:59:55;100159.03;;;26.23;100.00
50444;BME280;36370;52.216;21.142;2022-08-21T09:04:00;100165.09;;;26.45;100.00
50444;BME280;36370;52.216;21.142;2022-08-21T09:12:41;100158.44;;;26.41;100.00
50444;BME280;36370;52.216;21.142;2022-08-21T09:21:16;100166.38;;;26.56;100.00
50444;BME280;36370;52.216;21.142;2022-08-21T09:25:24;100155.84;;;27.01;100.00
50444;BME280;36370;52.216;21.142;2022-08-21T09:29:31;100158.78;;;26.86;100.00
50444;BME280;36370;52.216;21.142;2022-08-21T09:33:35;100157.72;;;26.81;100.00
50444;BME280;36370;52.216;21.142;2022-08-21T09:42:00;100165.16;;;26.72;100.00
50444;BME280;36370;52.216;21.142;2022-08-21T09:50:17;100154.59;;;27.24;100.00
50444;BME280;36370;52.216;21.142;2022-08-21T09:54:31;100150.22;;;27.10;100.00
50444;BME280;36370;52.216;21.142;2022-08-21T09:58:37;100148.19;;;26.98;100.00
50444;BME280;36370;52.216;21.142;2022-08-21T10:02:40;100144.19;;;27.54;100.00
50444;BME280;36370;52.216;21.142;2022-08-21T10:06:42;100147.28;;;27.51;100.00
50444;BME280;36370;52.216;21.142;2022-08-21T10:10:50;100144.84;;;27.10;100.00
50444;BME280;36370;52.216;21.142;2022-08-21T10:15:10;100141.31;;;27.29;100.00
50444;BME280;36370;52.216;21.142;2022-08-21T10:28:05;100136.56;;;27.04;100.00
50444;BME280;36370;52.216;21.142;2022-08-21T10:41:41;100141.91;;;26.64;100.00
50444;BME280;36370;52.216;21.142;2022-08-21T10:46:16;100146.91;;;26.67;100.00
50444;BME280;36370;52.216;21.142;2022-08-21T10:54:52;100145.59;;;26.30;100.00
50444;BME280;36370;52.216;21.142;2022-08-21T11:03:33;100141.69;;;25.91;100.00
50444;BME280;36370;52.216;21.142;2022-08-21T11:07:45;100137.50;;;25.75;100.00
50444;BME280;36370;52.216;21.142;2022-08-21T11:11:56;100131.53;;;25.86;100.00
50444;BME280;36370;52.216;21.142;2022-08-21T11:16:15;100127.69;;;26.02;100.00
50444;BME280;36370;52.216;21.142;2022-08-21T11:20:30;100129.16;;;26.05;100.00
50444;BME280;36370;52.216;21.142;2022-08-21T11:24:44;100120.13;;;26.46;100.00
50444;BME280;36370;52.216;21.142;2022-08-21T11:28:59;100118.28;;;26.46;100.00
50444;BME280;36370;52.216;21.142;2022-08-21T11:33:13;100121.75;;;26.13;100.00
50444;BME280;36370;52.216;21.142;2022-08-21T11:45:48;100119.31;;;26.52;100.00
50444;BME280;36370;52.216;21.142;2022-08-21T11:58:28;100121.69;;;26.07;100.00
50444;BME280;36370;52.216;21.142;2022-08-21T12:02:35;100124.66;;;26.25;100.00
50444;BME280;36370;52.216;21.142;2022-08-21T12:06:40;100118.50;;;26.45;100.00
50444;BME280;36370;52.216;21.142;2022-08-21T12:10:58;100105.88;;;26.99;100.00
50444;BME280;36370;52.216;21.142;2022-08-21T12:15:15;100104.09;;;27.65;100.00
50444;BME280;36370;52.216;21.142;2022-08-21T12:23:42;100101.34;;;27.78;100.00
50444;BME280;36370;52.216;21.142;2022-08-21T12:27:50;100110.38;;;27.25;100.00
50444;BME280;36370;52.216;21.142;2022-08-21T12:36:20;100113.78;;;26.87;100.00
50444;BME280;36370;52.216;21.142;2022-08-21T12:40:29;100108.31;;;26.54;100.00
50444;BME280;36370;52.216;21.142;2022-08-21T12:44:38;100114.97;;;26.64;100.00
50444;BME280;36370;52.216;21.142;2022-08-21T12:48:56;100108.59;;;26.85;100.00
50444;BME280;36370;52.216;21.142;2022-08-21T12:53:05;100110.88;;;27.02;100.00
50444;BME280;36370;52.216;21.142;2022-08-21T12:57:25;100111.50;;;26.84;100.00
50444;BME280;36370;52.216;21.142;2022-08-21T13:01:49;100115.63;;;27.00;100.00
50444;BME280;36370;52.216;21.142;2022-08-21T13:05:54;100113.72;;;27.27;100.00
50444;BME280;36370;52.216;21.142;2022-08-21T13:10:03;100118.03;;;27.55;100.00
50444;BME280;36370;52.216;21.142;2022-08-21T13:14:14;100108.16;;;28.33;100.00
50444;BME280;36370;52.216;21.142;2022-08-21T13:18:23;100116.16;;;28.14;100.00
50444;BME280;36370;52.216;21.142;2022-08-21T13:22:27;100108.66;;;28.16;100.00
50444;BME280;36370;52.216;21.142;2022-08-21T13:26:36;100116.03;;;27.96;100.00
50444;BME280;36370;52.216;21.142;2022-08-21T13:30:44;100114.88;;;27.65;100.00
50444;BME280;36370;52.216;21.142;2022-08-21T13:34:47;100117.88;;;27.43;100.00
50444;BME280;36370;52.216;21.142;2022-08-21T13:38:55;100116.56;;;27.66;100.00
50444;BME280;36370;52.216;21.142;2022-08-21T13:43:00;100119.31;;;27.26;100.00
50444;BME280;36370;52.216;21.142;2022-08-21T13:47:05;100117.19;;;27.54;100.00
50444;BME280;36370;52.216;21.142;2022-08-21T13:51:09;100116.94;;;27.69;100.00
50444;BME280;36370;52.216;21.142;2022-08-21T13:55:15;100104.56;;;28.07;100.00
50444;BME280;36370;52.216;21.142;2022-08-21T13:59:26;100119.34;;;27.91;100.00
50444;BME280;36370;52.216;21.142;2022-08-21T14:03:38;100107.50;;;27.40;100.00
50444;BME280;36370;52.216;21.142;2022-08-21T14:07:43;100110.81;;;27.35;100.00
50444;BME280;36370;52.216;21.142;2022-08-21T14:11:46;100116.84;;;27.24;100.00
50444;BME280;36370;52.216;21.142;2022-08-21T14:15:57;100110.78;;;27.55;100.00
50444;BME280;36370;52.216;21.142;2022-08-21T14:20:00;100118.84;;;27.62;100.00
50444;BME280;36370;52.216;21.142;2022-08-21T14:24:24;100113.19;;;27.77;100.00
50444;BME280;36370;52.216;21.142;2022-08-21T14:28:34;100115.19;;;28.02;100.00
50444;BME280;36370;52.216;21.142;2022-08-21T14:32:41;100116.66;;;27.91;100.00
50444;BME280;36370;52.216;21.142;2022-08-21T14:36:48;100117.69;;;27.90;100.00
50444;BME280;36370;52.216;21.142;2022-08-21T14:40:53;100112.00;;;28.11;100.00
50444;BME280;36370;52.216;21.142;2022-08-21T14:45:00;100104.16;;;28.03;100.00
50444;BME280;36370;52.216;21.142;2022-08-21T14:49:03;100115.94;;;28.09;100.00
50444;BME280;36370;52.216;21.142;2022-08-21T14:53:06;100119.44;;;27.71;100.00
50444;BME280;36370;52.216;21.142;2022-08-21T14:57:12;100110.34;;;27.58;100.00
50444;BME280;36370;52.216;21.142;2022-08-21T15:01:16;100104.91;;;27.65;100.00
50444;BME280;36370;52.216;21.142;2022-08-21T15:05:20;100104.44;;;27.82;100.00
50444;BME280;36370;52.216;21.142;2022-08-21T15:09:34;100102.28;;;27.52;100.00
50444;BME280;36370;52.216;21.142;2022-08-21T15:13:37;100102.38;;;27.77;100.00
50444;BME280;36370;52.216;21.142;2022-08-21T15:17:39;100102.13;;;27.85;100.00
50444;BME280;36370;52.216;21.142;2022-08-21T15:21:46;100109.91;;;27.62;100.00
50444;BME280;36370;52.216;21.142;2022-08-21T15:25:50;100106.22;;;27.49;100.00
50444;BME280;36370;52.216;21.142;2022-08-21T15:29:52;100097.53;;;27.99;100.00
50444;BME280;36370;52.216;21.142;2022-08-21T15:33:56;100109.97;;;27.93;100.00
50444;BME280;36370;52.216;21.142;2022-08-21T15:37:58;100111.50;;;28.28;100.00
50444;BME280;36370;52.216;21.142;2022-08-21T15:42:02;100109.03;;;28.20;100.00
50444;BME280;36370;52.216;21.142;2022-08-21T15:46:14;100111.63;;;28.72;100.00
50444;BME280;36370;52.216;21.142;2022-08-21T15:50:18;100119.69;;;28.78;100.00
50444;BME280;36370;52.216;21.142;2022-08-21T15:54:21;100118.09;;;28.32;100.00
50444;BME280;36370;52.216;21.142;2022-08-21T15:58:23;100120.09;;;29.00;100.00
50444;BME280;36370;52.216;21.142;2022-08-21T16:02:29;100127.41;;;29.00;100.00
50444;BME280;36370;52.216;21.142;2022-08-21T16:06:32;100132.75;;;28.18;100.00
50444;BME280;36370;52.216;21.142;2022-08-21T16:10:55;100138.38;;;27.51;100.00
50444;BME280;36370;52.216;21.142;2022-08-21T16:14:58;100130.97;;;26.86;100.00
50444;BME280;36370;52.216;21.142;2022-08-21T16:19:02;100138.56;;;26.36;100.00
50444;BME280;36370;52.216;21.142;2022-08-21T16:23:05;100136.22;;;26.06;100.00
50444;BME280;36370;52.216;21.142;2022-08-21T16:27:08;100133.31;;;25.66;100.00
50444;BME280;36370;52.216;21.142;2022-08-21T16:31:11;100131.56;;;25.23;100.00
50444;BME280;36370;52.216;21.142;2022-08-21T16:35:20;100133.59;;;25.14;100.00
50444;BME280;36370;52.216;21.142;2022-08-21T16:39:22;100132.59;;;24.94;100.00
50444;BME280;36370;52.216;21.142;2022-08-21T16:43:27;100144.66;;;25.04;100.00
50444;BME280;36370;52.216;21.142;2022-08-21T16:47:30;100139.97;;;24.85;100.00
50444;BME280;36370;52.216;21.142;2022-08-21T16:51:33;100144.72;;;24.83;100.00
50444;BME280;36370;52.216;21.142;2022-08-21T16:55:35;100145.56;;;24.62;100.00
50444;BME280;36370;52.216;21.142;2022-08-21T16:59:38;100145.38;;;24.48;100.00
50444;BME280;36370;52.216;21.142;2022-08-21T17:03:45;100151.50;;;24.42;100.00
50444;BME280;36370;52.216;21.142;2022-08-21T17:07:48;100151.38;;;24.29;100.00
50444;BME280;36370;52.216;21.142;2022-08-21T17:11:51;100146.78;;;24.23;100.00
50444;BME280;36370;52.216;21.142;2022-08-21T17:15:53;100144.25;;;23.99;100.00
50444;BME280;36370;52.216;21.142;2022-08-21T17:19:56;100140.56;;;23.86;100.00
50444;BME280;36370;52.216;21.142;2022-08-21T17:23:58;100141.84;;;23.75;100.00
50444;BME280;36370;52.216;21.142;2022-08-21T17:28:01;100145.44;;;23.67;100.00
50444;BME280;36370;52.216;21.142;2022-08-21T17:32:07;100134.16;;;23.57;100.00
50444;BME280;36370;52.216;21.142;2022-08-21T17:36:11;100140.81;;;23.31;100.00
50444;BME280;36370;52.216;21.142;2022-08-21T17:40:14;100144.88;;;23.12;100.00
50444;BME280;36370;52.216;21.142;2022-08-21T17:44:18;100137.88;;;23.03;100.00
50444;BME280;36370;52.216;21.142;2022-08-21T17:48:21;100136.28;;;22.93;100.00
50444;BME280;36370;52.216;21.142;2022-08-21T17:52:26;100124.72;;;22.78;100.00
50444;BME280;36370;52.216;21.142;2022-08-21T17:56:32;100121.78;;;22.65;100.00
50444;BME280;36370;52.216;21.142;2022-08-21T18:00:36;100108.72;;;22.47;100.00
50444;BME280;36370;52.216;21.142;2022-08-21T18:04:38;100106.97;;;22.31;100.00
50444;BME280;36370;52.216;21.142;2022-08-21T18:08:41;100094.03;;;22.11;100.00
50444;BME280;36370;52.216;21.142;2022-08-21T18:12:44;100100.91;;;22.05;100.00
50444;BME280;36370;52.216;21.142;2022-08-21T18:16:46;100099.28;;;21.96;100.00
50444;BME280;36370;52.216;21.142;2022-08-21T18:20:49;100093.88;;;21.81;100.00
50444;BME280;36370;52.216;21.142;2022-08-21T18:24:52;100082.38;;;21.73;100.00
50444;BME280;36370;52.216;21.142;2022-08-21T18:28:57;100074.75;;;21.53;100.00
50444;BME280;36370;52.216;21.142;2022-08-21T18:33:01;100070.59;;;21.42;100.00
50444;BME280;36370;52.216;21.142;2022-08-21T18:37:04;100072.47;;;21.33;100.00
50444;BME280;36370;52.216;21.142;2022-08-21T18:41:07;100063.69;;;21.16;100.00
50444;BME280;36370;52.216;21.142;2022-08-21T18:45:15;100068.50;;;21.13;100.00
50444;BME280;36370;52.216;21.142;2022-08-21T18:49:19;100063.56;;;20.93;100.00
50444;BME280;36370;52.216;21.142;2022-08-21T18:53:23;100057.22;;;20.94;100.00
50444;BME280;36370;52.216;21.142;2022-08-21T18:57:30;100049.56;;;20.75;100.00
50444;BME280;36370;52.216;21.142;2022-08-21T19:01:33;100050.41;;;20.67;100.00
50444;BME280;36370;52.216;21.142;2022-08-21T19:05:36;100058.03;;;20.54;100.00
50444;BME280;36370;52.216;21.142;2022-08-21T19:09:42;100065.88;;;20.47;100.00
50444;BME280;36370;52.216;21.142;2022-08-21T19:14:08;100060.19;;;20.25;100.00
50444;BME280;36370;52.216;21.142;2022-08-21T19:18:16;100065.38;;;20.27;100.00
50444;BME280;36370;52.216;21.142;2022-08-21T19:22:41;100067.38;;;20.17;100.00
50444;BME280;36370;52.216;21.142;2022-08-21T19:26:54;100071.19;;;20.06;100.00
50444;BME280;36370;52.216;21.142;2022-08-21T19:31:00;100067.84;;;20.04;100.00
50444;BME280;36370;52.216;21.142;2022-08-21T19:35:06;100063.31;;;19.96;100.00
50444;BME280;36370;52.216;21.142;2022-08-21T19:39:10;100071.97;;;19.90;100.00
50444;BME280;36370;52.216;21.142;2022-08-21T19:43:13;100069.94;;;19.84;100.00
50444;BME280;36370;52.216;21.142;2022-08-21T19:47:17;100073.72;;;19.73;100.00
50444;BME280;36370;52.216;21.142;2022-08-21T19:51:22;100086.03;;;19.66;100.00
50444;BME280;36370;52.216;21.142;2022-08-21T19:55:24;100080.69;;;19.66;100.00
50444;BME280;36370;52.216;21.142;2022-08-21T19:59:27;100087.47;;;19.52;100.00
50444;BME280;36370;52.216;21.142;2022-08-21T20:03:29;100091.97;;;19.51;100.00
50444;BME280;36370;52.216;21.142;2022-08-21T20:07:31;100089.09;;;19.45;100.00
50444;BME280;36370;52.216;21.142;2022-08-21T20:11:38;100099.06;;;19.43;100.00
50444;BME280;36370;52.216;21.142;2022-08-21T20:15:42;100095.91;;;19.39;100.00
50444;BME280;36370;52.216;21.142;2022-08-21T20:19:46;100098.81;;;19.28;100.00
50444;BME280;36370;52.216;21.142;2022-08-21T20:23:55;100096.78;;;19.22;100.00
50444;BME280;36370;52.216;21.142;2022-08-21T20:27:57;100096.94;;;19.20;100.00
50444;BME280;36370;52.216;21.142;2022-08-21T20:32:02;100095.97;;;19.21;100.00
50444;BME280;36370;52.216;21.142;2022-08-21T20:36:05;100096.75;;;19.13;100.00
50444;BME280;36370;52.216;21.142;2022-08-21T20:40:12;100092.94;;;19.16;100.00
50444;BME280;36370;52.216;21.142;2022-08-21T20:44:15;100086.25;;;19.12;100.00
50444;BME280;36370;52.216;21.142;2022-08-21T20:48:36;100087.53;;;19.08;100.00
50444;BME280;36370;52.216;21.142;2022-08-21T20:52:54;100099.34;;;19.05;100.00
50444;BME280;36370;52.216;21.142;2022-08-21T21:01:14;100087.81;;;18.96;100.00
50444;BME280;36370;52.216;21.142;2022-08-21T21:09:56;100088.44;;;18.90;100.00
50444;BME280;36370;52.216;21.142;2022-08-21T21:14:04;100105.28;;;18.81;100.00
50444;BME280;36370;52.216;21.142;2022-08-21T21:18:15;100108.16;;;18.61;100.00
50444;BME280;36370;52.216;21.142;2022-08-21T21:22:24;100100.97;;;18.80;100.00
50444;BME280;36370;52.216;21.142;2022-08-21T21:26:43;100103.94;;;18.77;100.00
50444;BME280;36370;52.216;21.142;2022-08-21T21:30:50;100102.06;;;18.69;100.00
50444;BME280;36370;52.216;21.142;2022-08-21T21:35:03;100105.63;;;18.60;100.00
50444;BME280;36370;52.216;21.142;2022-08-21T21:39:40;100102.59;;;18.55;100.00
50444;BME280;36370;52.216;21.142;2022-08-21T22:01:28;100116.41;;;18.22;100.00
50444;BME280;36370;52.216;21.142;2022-08-21T22:10:46;100109.91;;;18.07;100.00
50444;BME280;36370;52.216;21.142;2022-08-21T22:14:54;100110.09;;;18.05;100.00
50444;BME280;36370;52.216;21.142;2022-08-21T22:19:30;100119.34;;;18.01;100.00
50444;BME280;36370;52.216;21.142;2022-08-21T22:23:40;100109.84;;;17.99;100.00
50444;BME280;36370;52.216;21.142;2022-08-21T22:27:43;100114.47;;;17.97;100.00
50444;BME280;36370;52.216;21.142;2022-08-21T22:32:05;100107.78;;;17.92;100.00
50444;BME280;36370;52.216;21.142;2022-08-21T22:36:32;100109.34;;;17.85;100.00
50444;BME280;36370;52.216;21.142;2022-08-21T22:40:35;100111.44;;;17.82;100.00